createdAt,value
2023-03-05T00:07:47.850Z,11.88
2023-03-05T00:08:47.924Z,13.08
2023-03-05T00:09:48.011Z,12.38
2023-03-05T00:10:48.066Z,12.36
2023-03-05T00:11:48.113Z,12.81
2023-03-05T00:12:48.185Z,12.36
2023-03-05T00:13:48.262Z,11.98
2023-03-05T00:14:48.359Z,11.90
2023-03-05T00:15:48.468Z,12.82
2023-03-05T00:16:48.555Z,13.79
2023-03-05T00:17:48.599Z,12.17
2023-03-05T00:18:48.654Z,12.11
2023-03-05T00:19:48.750Z,13.07
2023-03-05T00:20:49.592Z,13.19
2023-03-05T00:21:48.895Z,12.56
2023-03-05T00:22:48.946Z,11.27
2023-03-05T00:23:49.040Z,12.18
2023-03-05T00:24:49.155Z,12.00
2023-03-05T00:25:49.175Z,13.24
2023-03-05T00:26:49.235Z,11.88
2023-03-05T00:27:49.322Z,12.81
2023-03-05T00:28:49.346Z,12.61
2023-03-05T00:29:49.446Z,12.84
2023-03-05T00:30:49.566Z,12.38
2023-03-05T00:31:49.574Z,12.69
2023-03-05T00:32:49.624Z,12.16
2023-03-05T00:33:49.708Z,11.23
2023-03-05T00:34:49.796Z,13.22
2023-03-05T00:35:49.848Z,12.54
2023-03-05T00:36:49.924Z,12.54
2023-03-05T00:37:50.015Z,13.34
2023-03-05T00:38:50.076Z,12.66
2023-03-05T00:39:50.159Z,12.12
2023-03-05T00:40:50.256Z,12.19
2023-03-05T00:41:50.307Z,12.24
2023-03-05T00:42:50.377Z,12.65
2023-03-05T00:43:50.464Z,12.45
2023-03-05T00:44:50.531Z,12.47
2023-03-05T00:45:50.589Z,12.85
2023-03-05T00:46:50.658Z,12.38
2023-03-05T00:47:50.766Z,12.39
2023-03-05T00:48:50.812Z,12.66
2023-03-05T00:49:50.871Z,12.20
2023-03-05T00:50:50.977Z,12.30
2023-03-05T00:51:51.053Z,12.09
2023-03-05T00:52:51.106Z,12.22
2023-03-05T00:53:51.163Z,12.52
2023-03-05T02:21:57.868Z,12.18
2023-03-05T02:22:57.957Z,13.17
2023-03-05T02:23:58.010Z,12.75
2023-03-05T02:24:58.089Z,13.17
2023-03-05T02:25:58.169Z,13.70
2023-03-05T02:26:58.253Z,12.37
2023-03-05T02:27:58.319Z,12.63
2023-03-05T02:28:58.428Z,11.81
2023-03-05T02:29:58.504Z,11.72
2023-03-05T02:30:58.572Z,13.18
2023-03-05T02:31:58.825Z,12.36
2023-03-05T02:32:58.759Z,12.84
2023-03-05T02:33:58.840Z,12.89
2023-03-05T02:34:58.924Z,13.61
2023-03-05T02:35:59.156Z,13.83
2023-03-05T02:36:59.142Z,13.67
2023-03-05T02:37:59.195Z,13.12
2023-03-05T02:38:59.265Z,11.43
2023-03-05T02:39:59.346Z,13.71
2023-03-05T02:40:59.415Z,12.56
2023-03-05T02:41:59.505Z,12.06
2023-03-05T02:42:59.565Z,13.14
2023-03-05T02:43:59.660Z,12.47
2023-03-05T02:44:59.776Z,12.40
2023-03-05T02:45:59.850Z,12.89
2023-03-05T02:46:59.900Z,12.35
2023-03-05T02:47:59.931Z,13.63
2023-03-05T02:49:00.002Z,12.74
2023-03-05T02:50:00.120Z,11.98
2023-03-05T02:51:00.158Z,12.24
2023-03-05T02:52:00.210Z,12.71
2023-03-05T02:53:00.271Z,12.85
2023-03-05T02:54:00.346Z,13.61
2023-03-05T02:55:00.428Z,12.99
2023-03-05T02:56:00.511Z,12.57
2023-03-05T02:57:00.641Z,13.71
2023-03-05T02:58:00.696Z,14.46
2023-03-05T02:59:00.745Z,13.37
2023-03-05T03:00:00.862Z,13.24
2023-03-05T03:01:00.916Z,12.33
2023-03-05T03:02:00.982Z,11.61
2023-03-05T03:03:01.140Z,12.47
2023-03-05T03:04:01.103Z,12.16
2023-03-05T03:05:01.212Z,11.70
2023-03-05T03:06:01.289Z,11.78
2023-03-05T03:07:01.397Z,12.73
2023-03-05T03:08:01.457Z,12.24
2023-03-05T03:09:01.563Z,12.14
2023-03-05T03:10:01.624Z,11.57
2023-03-05T03:11:01.739Z,13.29
2023-03-05T03:12:01.869Z,13.15
2023-03-05T03:13:01.943Z,12.25
2023-03-05T03:14:02.049Z,12.12
2023-03-05T03:15:02.139Z,12.39
2023-03-05T03:16:02.207Z,12.51
2023-03-05T03:17:02.465Z,11.62
2023-03-05T03:18:02.400Z,12.68
2023-03-05T03:19:02.473Z,12.13
2023-03-05T03:20:02.573Z,11.69
2023-03-05T03:21:02.665Z,12.32
2023-03-05T03:22:02.738Z,12.43
2023-03-05T03:23:02.805Z,12.69
2023-03-05T03:24:02.843Z,12.26
2023-03-05T03:25:02.961Z,12.54
2023-03-05T03:26:03.032Z,12.31
2023-03-05T03:27:03.140Z,13.55
2023-03-05T03:28:03.207Z,13.49
2023-03-05T03:29:03.252Z,12.83
2023-03-05T03:30:03.359Z,14.64
2023-03-05T03:31:03.477Z,12.87
2023-03-05T03:32:03.563Z,13.27
2023-03-05T03:33:03.575Z,12.09
2023-03-05T03:34:03.593Z,12.97
2023-03-05T03:35:03.697Z,12.13
2023-03-05T03:36:03.720Z,12.56
2023-03-05T03:37:03.823Z,12.42
2023-03-05T03:38:03.876Z,13.85
2023-03-05T03:39:03.965Z,12.77
2023-03-05T03:40:04.010Z,13.77
2023-03-05T03:41:04.112Z,12.23
2023-03-05T03:42:04.252Z,12.28
2023-03-05T03:43:04.263Z,12.48
2023-03-05T03:44:04.359Z,12.61
2023-03-05T03:45:04.457Z,12.41
2023-03-05T03:46:04.534Z,13.68
2023-03-05T03:47:04.619Z,13.30
2023-03-05T03:48:04.655Z,14.98
2023-03-05T03:49:04.715Z,12.93
2023-03-05T03:50:04.777Z,13.14
2023-03-05T03:51:04.880Z,13.32
2023-03-05T03:52:04.895Z,12.63
2023-03-05T03:53:04.960Z,13.77
2023-03-05T03:54:05.017Z,12.65
2023-03-05T03:55:05.116Z,12.05
2023-03-05T03:56:05.166Z,12.65
2023-03-05T03:57:05.231Z,12.56
2023-03-05T03:58:05.274Z,13.82
2023-03-05T03:59:05.327Z,13.25
2023-03-05T04:00:05.374Z,13.23
2023-03-05T04:01:05.396Z,13.73
2023-03-05T04:02:05.510Z,13.67
2023-03-05T04:03:05.551Z,13.28
2023-03-05T04:04:05.718Z,12.49
2023-03-05T04:05:05.698Z,12.95
2023-03-05T04:06:05.779Z,13.41
2023-03-05T04:07:05.890Z,12.30
2023-03-05T04:08:05.985Z,12.75
2023-03-05T04:09:06.022Z,13.27
2023-03-05T04:10:06.093Z,14.10
2023-03-05T04:11:06.199Z,13.00
2023-03-05T04:12:06.332Z,13.36
2023-03-05T04:13:06.333Z,13.56
2023-03-05T04:14:06.465Z,14.23
2023-03-05T04:15:06.516Z,14.00
2023-03-05T04:16:06.584Z,13.53
2023-03-05T04:17:06.673Z,12.34
2023-03-05T04:18:06.781Z,13.28
2023-03-05T04:19:06.831Z,13.08
2023-03-05T04:20:06.945Z,12.96
2023-03-05T04:21:07.031Z,13.35
2023-03-05T04:22:07.115Z,13.26
2023-03-05T04:23:07.155Z,13.83
2023-03-05T04:24:07.261Z,13.12
2023-03-05T04:25:07.361Z,13.16
2023-03-05T04:26:07.423Z,12.56
2023-03-05T04:27:07.560Z,14.05
2023-03-05T04:28:07.621Z,13.20
2023-03-05T04:29:07.726Z,13.45
2023-03-05T04:30:07.799Z,12.85
2023-03-05T04:31:07.980Z,15.00
2023-03-05T04:32:08.022Z,12.45
2023-03-05T04:33:08.083Z,12.62
2023-03-05T04:34:08.143Z,12.97
2023-03-05T04:35:08.198Z,12.80
2023-03-05T04:36:08.321Z,13.45
2023-03-05T04:37:08.418Z,13.64
2023-03-05T04:38:08.461Z,13.59
2023-03-05T04:39:08.556Z,12.33
2023-03-05T04:40:08.650Z,13.73
2023-03-05T04:41:08.720Z,16.03
2023-03-05T04:42:08.796Z,14.01
2023-03-05T04:43:08.849Z,12.92
2023-03-05T04:44:08.917Z,13.62
2023-03-05T04:45:09.041Z,14.61
2023-03-05T04:46:09.129Z,15.17
2023-03-05T04:47:09.200Z,14.09
2023-03-05T04:48:09.290Z,13.80
2023-03-05T04:49:09.328Z,12.29
2023-03-05T04:50:09.435Z,14.04
2023-03-05T04:51:09.469Z,13.78
2023-03-05T04:52:09.578Z,13.51
2023-03-05T04:53:09.617Z,13.80
2023-03-05T04:54:09.744Z,13.99
2023-03-05T04:55:09.832Z,13.39
2023-03-05T04:56:09.884Z,13.97
2023-03-05T04:57:09.963Z,13.15
2023-03-05T04:58:10.070Z,13.87
2023-03-05T04:59:10.159Z,13.70
2023-03-05T05:00:10.233Z,13.33
2023-03-05T05:01:10.272Z,14.78
2023-03-05T05:02:10.372Z,13.72
2023-03-05T05:03:10.463Z,14.22
2023-03-05T05:04:10.559Z,13.25
2023-03-05T05:05:10.632Z,12.38
2023-03-05T05:06:10.730Z,13.18
2023-03-05T05:07:10.874Z,12.96
2023-03-05T05:08:10.885Z,12.98
2023-03-05T05:09:11.012Z,13.35
2023-03-05T05:10:11.077Z,13.75
2023-03-05T05:11:11.124Z,14.13
2023-03-05T05:12:11.273Z,13.25
2023-03-05T05:13:11.288Z,13.74
2023-03-05T05:14:11.375Z,14.17
2023-03-05T05:15:11.454Z,13.25
2023-03-05T05:16:11.544Z,14.32
2023-03-05T05:17:11.646Z,14.10
2023-03-05T05:18:11.737Z,13.02
2023-03-05T05:19:11.859Z,12.85
2023-03-05T05:20:11.924Z,13.37
2023-03-05T05:21:12.005Z,13.78
2023-03-05T05:22:12.119Z,12.01
2023-03-05T05:23:12.186Z,12.11
2023-03-05T05:24:12.273Z,13.15
2023-03-05T05:25:12.326Z,12.05
2023-03-05T05:26:12.424Z,12.62
2023-03-05T05:27:12.522Z,13.40
2023-03-05T05:28:12.587Z,12.20
2023-03-05T05:29:12.653Z,14.27
2023-03-05T05:30:12.755Z,14.72
2023-03-05T05:31:12.852Z,15.36
2023-03-05T05:32:12.967Z,14.70
2023-03-05T05:33:13.016Z,14.81
2023-03-05T05:34:13.144Z,15.21
2023-03-05T05:35:13.203Z,16.65
2023-03-05T05:36:13.312Z,15.88
2023-03-05T05:37:13.377Z,15.32
2023-03-05T05:38:13.448Z,15.93
2023-03-05T05:39:13.502Z,16.03
2023-03-05T05:40:13.600Z,17.33
2023-03-05T05:41:13.711Z,16.46
2023-03-05T05:42:13.770Z,16.48
2023-03-05T05:43:13.813Z,16.85
2023-03-05T05:44:13.879Z,16.66
2023-03-05T05:45:13.976Z,17.56
2023-03-05T05:46:14.093Z,17.99
2023-03-05T05:47:14.140Z,18.39
2023-03-05T05:48:14.176Z,18.90
2023-03-05T05:49:14.219Z,17.05
2023-03-05T05:50:14.282Z,18.08
2023-03-05T05:51:14.350Z,17.82
2023-03-05T05:52:15.191Z,17.59
2023-03-05T05:53:14.509Z,18.30
2023-03-05T05:54:14.535Z,16.39
2023-03-05T05:55:14.631Z,18.11
2023-03-05T05:56:14.686Z,16.82
2023-03-05T05:57:14.747Z,16.04
2023-03-05T05:58:14.771Z,16.46
2023-03-05T05:59:14.864Z,16.83
2023-03-05T06:00:14.953Z,16.59
2023-03-05T06:01:14.999Z,16.10
2023-03-05T06:02:15.072Z,16.77
2023-03-05T06:03:15.212Z,17.69
2023-03-05T06:04:15.203Z,16.69
2023-03-05T06:05:15.277Z,16.57
2023-03-05T06:06:15.369Z,15.37
2023-03-05T06:07:15.393Z,14.81
2023-03-05T06:08:15.704Z,16.01
2023-03-05T06:09:15.517Z,17.49
2023-03-05T06:10:15.579Z,16.21
2023-03-05T06:11:17.636Z,16.86
2023-03-05T06:12:15.724Z,15.26
2023-03-05T06:13:15.766Z,15.89
2023-03-05T06:14:15.899Z,14.00
2023-03-05T06:15:15.853Z,15.66
2023-03-05T06:16:16.005Z,15.61
2023-03-05T06:17:25.091Z,14.81
2023-03-05T06:19:16.029Z,15.93
2023-03-05T06:20:16.051Z,15.95
2023-03-05T06:21:16.109Z,16.42
2023-03-05T06:22:16.144Z,16.13
2023-03-05T06:23:16.217Z,16.21
2023-03-05T06:24:16.274Z,15.09
2023-03-05T06:25:16.278Z,15.79
2023-03-05T06:26:16.373Z,15.06
2023-03-05T06:53:17.882Z,16.46
2023-03-05T06:54:17.945Z,16.32
2023-03-05T06:55:18.019Z,16.56
2023-03-05T06:56:18.053Z,15.99
2023-03-05T06:57:18.123Z,15.70
2023-03-05T06:58:18.234Z,16.34
2023-03-05T06:59:18.292Z,16.33
2023-03-05T07:00:18.390Z,17.66
2023-03-05T07:01:18.491Z,16.83
2023-03-05T07:02:18.544Z,16.72
2023-03-05T07:03:18.573Z,16.82
2023-03-05T07:04:18.640Z,16.31
2023-03-05T07:05:18.679Z,15.60
2023-03-05T07:06:18.765Z,15.63
2023-03-05T07:07:18.843Z,17.11
2023-03-05T07:08:18.896Z,15.54
2023-03-05T07:09:18.944Z,17.47
2023-03-05T07:10:19.036Z,15.45
2023-03-05T07:11:19.070Z,16.12
2023-03-05T07:12:19.136Z,15.97
2023-03-05T07:13:19.259Z,16.29
2023-03-05T07:14:19.289Z,15.39
2023-03-05T07:15:19.331Z,16.09
2023-03-05T07:16:19.447Z,16.27
2023-03-05T07:17:19.481Z,16.66
2023-03-05T07:18:19.525Z,15.93
2023-03-05T07:19:19.574Z,15.76
2023-03-05T07:20:19.650Z,16.28
2023-03-05T07:21:19.688Z,18.61
2023-03-05T07:22:19.756Z,16.54
2023-03-05T07:23:19.829Z,17.08
2023-03-05T07:24:19.891Z,15.60
2023-03-05T07:25:20.002Z,16.08
2023-03-05T07:26:20.072Z,16.60
2023-03-05T07:27:20.140Z,15.68
2023-03-05T07:28:20.188Z,15.83
2023-03-05T07:29:20.246Z,15.25
2023-03-05T07:30:20.316Z,16.20
2023-03-05T07:31:20.455Z,16.22
2023-03-05T07:32:20.498Z,15.84
2023-03-05T07:33:20.535Z,15.40
2023-03-05T07:34:20.593Z,15.76
2023-03-05T09:15:27.856Z,18.19
2023-03-05T09:16:28.007Z,16.72
2023-03-05T09:17:28.019Z,16.04
2023-03-05T09:18:28.103Z,16.50
2023-03-05T09:19:28.169Z,16.81
2023-03-05T09:20:28.281Z,15.20
2023-03-05T09:21:28.357Z,16.62
2023-03-05T09:22:28.400Z,15.11
2023-03-05T09:23:28.492Z,16.28
2023-03-05T09:24:28.582Z,15.69
2023-03-05T09:25:28.665Z,14.89
2023-03-05T09:26:28.775Z,15.96
2023-03-05T09:27:28.829Z,15.26
2023-03-05T09:28:28.912Z,13.91
2023-03-05T09:29:28.996Z,14.07
2023-03-05T09:30:29.065Z,13.61
2023-03-05T09:31:29.195Z,14.43
2023-03-05T09:32:29.254Z,15.10
2023-03-05T09:33:29.312Z,14.30
2023-03-05T09:34:29.407Z,14.55
2023-03-05T09:35:29.494Z,14.86
2023-03-05T09:36:29.560Z,14.44
2023-03-05T09:37:29.666Z,13.82
2023-03-05T09:38:29.690Z,14.71
2023-03-05T09:39:29.760Z,15.10
2023-03-05T09:40:29.831Z,12.52
2023-03-05T09:41:29.945Z,12.54
2023-03-05T09:42:29.999Z,13.52
2023-03-05T09:43:30.066Z,12.98
2023-03-05T09:44:30.187Z,14.22
2023-03-05T09:45:30.311Z,14.89
2023-03-05T09:46:30.341Z,14.34
2023-03-05T09:47:30.418Z,13.36
2023-03-05T09:48:30.497Z,13.07
2023-03-05T09:49:30.553Z,13.82
2023-03-05T09:50:30.619Z,14.09
2023-03-05T09:51:30.700Z,12.65
2023-03-05T09:52:30.742Z,13.09
2023-03-05T09:53:30.828Z,12.29
2023-03-05T09:54:30.920Z,12.47
2023-03-05T09:55:31.002Z,13.83
2023-03-05T09:56:31.057Z,13.98
2023-03-05T09:57:31.160Z,12.20
2023-03-05T09:58:31.283Z,12.68
2023-03-05T09:59:31.301Z,12.66
2023-03-05T10:00:31.406Z,12.97
2023-03-05T10:01:31.484Z,13.04
2023-03-05T10:02:31.565Z,11.94
2023-03-05T10:03:31.673Z,13.40
2023-03-05T10:04:31.747Z,12.55
2023-03-05T10:05:31.879Z,12.54
2023-03-05T10:06:31.928Z,11.83
2023-03-05T10:07:31.972Z,13.63
2023-03-05T10:08:32.066Z,12.04
2023-03-05T10:09:32.166Z,13.36
2023-03-05T10:10:32.253Z,11.79
2023-03-05T10:11:32.298Z,12.47
2023-03-05T10:12:32.416Z,12.19
2023-03-05T10:13:32.495Z,12.00
2023-03-05T10:14:32.566Z,12.01
2023-03-05T10:15:32.595Z,12.16
2023-03-05T10:16:32.776Z,13.35
2023-03-05T10:17:32.783Z,13.22
2023-03-05T10:18:32.882Z,13.06
2023-03-05T10:19:32.950Z,10.55
2023-03-05T10:20:33.014Z,12.47
2023-03-05T10:21:33.104Z,11.88
2023-03-05T10:22:33.214Z,11.89
2023-03-05T10:23:33.248Z,12.44
2023-03-05T10:24:33.331Z,12.04
2023-03-05T10:25:33.427Z,12.08
2023-03-05T10:26:33.461Z,12.88
2023-03-05T10:27:33.650Z,13.41
2023-03-05T10:28:33.620Z,11.94
2023-03-05T10:29:33.742Z,11.60
2023-03-05T10:30:33.761Z,12.60
2023-03-05T10:31:33.903Z,11.87
2023-03-05T10:32:33.947Z,11.87
2023-03-05T10:33:34.026Z,12.75
2023-03-05T10:34:34.073Z,12.60
2023-03-05T10:35:34.193Z,11.53
2023-03-05T10:36:34.260Z,11.64
2023-03-05T10:37:34.291Z,12.71
2023-03-05T10:38:34.407Z,12.93
2023-03-05T10:39:34.493Z,11.13
2023-03-05T10:40:34.537Z,11.06
2023-03-05T10:41:34.639Z,11.39
2023-03-05T10:42:34.695Z,10.94
2023-03-05T10:43:34.781Z,10.02
2023-03-05T10:44:34.864Z,11.50
2023-03-05T10:45:34.983Z,11.69
2023-03-05T10:46:35.037Z,11.10
2023-03-05T10:47:35.102Z,11.16
2023-03-05T10:48:35.208Z,11.47
2023-03-05T10:49:35.254Z,10.93
2023-03-05T10:50:35.334Z,11.24
2023-03-05T10:51:35.417Z,9.53
2023-03-05T10:52:35.461Z,9.27
2023-03-05T10:53:35.555Z,9.32
2023-03-05T10:54:35.631Z,9.06
2023-03-05T10:55:35.705Z,9.89
2023-03-05T10:56:35.826Z,9.85
2023-03-05T10:57:35.868Z,9.36
2023-03-05T10:58:35.945Z,9.61
2023-03-05T10:59:36.026Z,9.09
2023-03-05T11:23:37.872Z,9.81
2023-03-05T11:24:37.955Z,8.73
2023-03-05T11:25:38.020Z,9.18
2023-03-05T11:26:38.123Z,8.45
2023-03-05T11:27:38.205Z,8.44
2023-03-05T11:28:38.319Z,8.25
2023-03-05T11:29:38.389Z,7.90
2023-03-05T11:30:38.476Z,8.33
2023-03-05T11:31:38.499Z,8.06
2023-03-05T11:32:38.667Z,8.19
2023-03-05T11:33:38.654Z,8.52
2023-03-05T11:34:38.762Z,9.04
2023-03-05T11:35:38.857Z,9.50
2023-03-05T11:36:38.924Z,9.76
2023-03-05T11:37:38.995Z,9.76
2023-03-05T11:38:39.062Z,10.30
2023-03-05T11:39:39.149Z,9.83
2023-03-05T11:40:39.250Z,9.14
2023-03-05T11:41:39.319Z,8.73
2023-03-05T11:42:39.387Z,8.75
2023-03-05T11:43:39.455Z,7.97
2023-03-05T11:44:39.533Z,8.84
2023-03-05T11:45:39.630Z,8.19
2023-03-05T11:46:39.729Z,8.22
2023-03-05T11:47:39.778Z,8.79
2023-03-05T11:48:39.876Z,9.12
2023-03-05T11:49:39.946Z,9.10
2023-03-05T11:50:40.002Z,8.47
2023-03-05T11:51:40.122Z,9.21
2023-03-05T11:52:40.190Z,9.84
2023-03-05T11:53:40.266Z,8.79
2023-03-05T11:54:40.405Z,8.92
2023-03-05T11:55:40.458Z,6.95
2023-03-05T11:56:40.545Z,7.98
2023-03-05T11:57:40.609Z,8.60
2023-03-05T11:58:40.697Z,7.54
2023-03-05T11:59:40.789Z,8.13
2023-03-05T12:00:40.836Z,7.18
2023-03-05T12:01:40.926Z,9.30
2023-03-05T12:02:41.017Z,8.14
2023-03-05T12:03:41.108Z,8.67
2023-03-05T12:04:41.128Z,8.47
2023-03-05T12:05:41.206Z,8.76
2023-03-05T12:06:41.291Z,9.39
2023-03-05T12:07:41.383Z,8.67
2023-03-05T12:08:41.433Z,8.47
2023-03-05T12:09:42.237Z,8.54
2023-03-05T12:10:41.936Z,7.38
2023-03-05T12:11:42.216Z,7.34
2023-03-05T12:12:42.085Z,7.95
2023-03-05T12:13:43.171Z,7.88
2023-03-05T12:14:41.901Z,8.20
2023-03-05T12:15:42.118Z,8.28
2023-03-05T12:16:42.560Z,8.79
2023-03-05T12:17:42.265Z,8.29
2023-03-05T12:18:42.778Z,9.21
2023-03-05T12:19:42.759Z,8.36
2023-03-05T12:20:42.401Z,8.41
2023-03-05T12:21:42.417Z,8.34
2023-03-05T12:22:42.519Z,7.99
2023-03-05T12:23:42.590Z,7.65
2023-03-05T12:24:43.105Z,7.35
2023-03-05T12:25:42.879Z,7.84
2023-03-05T12:26:43.025Z,6.88
2023-03-05T12:27:42.878Z,7.24
2023-03-05T12:28:43.030Z,8.34
2023-03-05T12:29:43.046Z,8.77
2023-03-05T12:30:43.570Z,7.82
2023-03-05T12:31:43.189Z,8.21
2023-03-05T12:32:43.335Z,8.84
2023-03-05T12:33:43.334Z,9.40
2023-03-05T12:34:43.413Z,9.26
2023-03-05T12:36:43.741Z,8.24
2023-03-05T12:37:43.950Z,7.77
2023-03-05T12:38:43.731Z,7.69
2023-03-05T12:39:44.012Z,8.15
2023-03-05T12:40:43.896Z,7.69
2023-03-05T12:41:44.401Z,8.01
2023-03-05T12:42:44.030Z,7.54
2023-03-05T12:43:44.183Z,8.02
2023-03-05T12:44:44.223Z,7.44
2023-03-05T12:45:44.272Z,7.74
2023-03-05T12:46:44.398Z,8.43
2023-03-05T12:47:44.455Z,8.09
2023-03-05T12:48:44.588Z,8.24
2023-03-05T12:49:44.596Z,7.59
2023-03-05T12:50:44.658Z,7.51
2023-03-05T12:51:44.746Z,7.50
2023-03-05T12:52:44.831Z,7.85
2023-03-05T12:53:44.876Z,8.20
2023-03-05T12:54:44.953Z,7.43
2023-03-05T12:55:45.060Z,7.74
2023-03-05T12:56:45.096Z,7.94
2023-03-05T12:57:45.219Z,8.08
2023-03-05T12:58:45.304Z,7.65
2023-03-05T12:59:45.365Z,7.70
2023-03-05T13:00:45.471Z,8.44
2023-03-05T13:01:45.523Z,8.24
2023-03-05T13:02:45.592Z,8.82
2023-03-05T13:03:45.688Z,9.93
2023-03-05T13:04:45.737Z,8.70
2023-03-05T13:05:45.836Z,9.44
2023-03-05T13:06:45.894Z,8.55
2023-03-05T13:07:45.992Z,7.58
2023-03-05T13:08:46.060Z,8.55
2023-03-05T13:09:46.105Z,8.73
2023-03-05T13:10:46.209Z,8.44
2023-03-05T13:11:46.321Z,8.63
2023-03-05T13:12:46.405Z,8.95
2023-03-05T13:13:46.472Z,8.89
2023-03-05T13:14:46.587Z,9.13
2023-03-05T13:15:46.650Z,9.26
2023-03-05T13:16:46.821Z,8.28
2023-03-05T13:17:46.813Z,8.11
2023-03-05T13:18:46.940Z,9.05
2023-03-05T13:19:46.970Z,9.00
2023-03-05T13:20:47.075Z,8.51
2023-03-05T13:21:47.189Z,8.16
2023-03-05T13:22:47.251Z,8.72
2023-03-05T13:23:47.371Z,8.83
2023-03-05T13:24:47.424Z,8.68
2023-03-05T13:25:47.535Z,8.33
2023-03-05T13:26:47.606Z,9.76
2023-03-05T13:27:47.704Z,9.21
2023-03-05T13:28:47.769Z,8.89
2023-03-05T13:29:47.831Z,9.89
2023-03-05T13:30:47.928Z,8.93
2023-03-05T13:31:48.073Z,9.32
2023-03-05T13:32:48.087Z,9.08
2023-03-05T13:33:48.164Z,8.68
2023-03-05T13:34:48.303Z,8.84
2023-03-05T13:35:48.426Z,8.15
2023-03-05T13:36:48.431Z,8.01
2023-03-05T13:37:48.504Z,8.07
2023-03-05T13:38:48.605Z,8.97
2023-03-05T13:39:48.665Z,8.83
2023-03-05T13:40:48.770Z,7.99
2023-03-05T13:41:48.815Z,7.83
2023-03-05T13:42:48.938Z,9.36
2023-03-05T13:43:49.014Z,8.56
2023-03-05T13:44:49.072Z,8.13
2023-03-05T13:45:49.249Z,8.88
2023-03-05T13:46:49.210Z,7.99
2023-03-05T13:47:49.314Z,8.69
2023-03-05T13:48:49.422Z,8.35
2023-03-05T13:49:49.478Z,8.76
2023-03-05T13:50:49.549Z,9.23
2023-03-05T13:51:49.637Z,9.70
2023-03-05T13:52:49.727Z,8.71
2023-03-05T13:53:49.801Z,8.00
2023-03-05T13:54:49.908Z,8.95
2023-03-05T13:55:49.996Z,8.57
2023-03-05T14:02:50.552Z,8.57
2023-03-05T14:03:50.639Z,9.54
2023-03-05T14:04:50.839Z,8.81
2023-03-05T14:05:50.830Z,8.66
2023-03-05T14:06:50.924Z,8.47
2023-03-05T14:07:51.015Z,8.44
2023-03-05T14:08:51.118Z,8.70
2023-03-05T14:09:51.176Z,8.64
2023-03-05T14:10:51.276Z,8.45
2023-03-05T14:11:51.377Z,8.84
2023-03-05T14:12:51.437Z,8.97
2023-03-05T14:13:51.498Z,8.65
2023-03-05T14:14:51.564Z,8.58
2023-03-05T14:15:51.676Z,8.64
2023-03-05T14:16:51.820Z,8.52
2023-03-05T14:17:51.811Z,8.27
2023-03-05T14:18:51.950Z,8.69
2023-03-05T14:19:52.014Z,8.27
2023-03-05T14:20:52.108Z,8.32
2023-03-05T14:21:52.136Z,8.37
2023-03-05T14:22:52.233Z,8.96
2023-03-05T14:23:52.287Z,8.80
2023-03-05T14:24:52.398Z,7.49
2023-03-05T14:25:52.470Z,7.98
2023-03-05T14:26:52.554Z,8.83
2023-03-05T14:27:52.622Z,8.27
2023-03-05T14:28:52.731Z,8.27
2023-03-05T14:29:52.774Z,8.38
2023-03-05T14:30:52.920Z,8.46
2023-03-05T14:31:53.006Z,8.16
2023-03-05T14:32:53.054Z,8.13
2023-03-05T14:33:53.092Z,8.25
2023-03-05T14:34:53.145Z,7.66
2023-03-05T14:35:53.300Z,8.13
2023-03-05T14:36:53.300Z,7.23
2023-03-05T14:37:53.399Z,8.50
2023-03-05T14:38:53.427Z,7.42
2023-03-05T14:39:53.511Z,7.95
2023-03-05T14:40:53.558Z,7.52
2023-03-05T14:41:53.619Z,8.25
2023-03-05T14:42:53.677Z,8.13
2023-03-05T14:43:53.738Z,7.74
2023-03-05T14:44:53.826Z,7.44
2023-03-05T14:45:53.988Z,8.15
2023-03-05T14:46:53.974Z,8.89
2023-03-05T14:47:54.026Z,7.35
2023-03-05T14:48:54.112Z,8.33
2023-03-05T14:49:54.145Z,8.17
2023-03-05T14:50:56.341Z,7.85
2023-03-05T14:51:54.343Z,8.15
2023-03-05T14:52:54.433Z,7.96
2023-03-05T14:53:54.505Z,8.05
2023-03-05T14:54:54.585Z,8.15
2023-03-05T14:55:54.656Z,8.23
2023-03-05T14:56:54.720Z,7.20
2023-03-05T14:57:54.764Z,7.63
2023-03-05T14:58:54.839Z,7.92
2023-03-05T14:59:54.895Z,8.78
2023-03-05T15:37:57.365Z,7.74
2023-03-05T15:38:57.453Z,8.45
2023-03-05T15:39:57.474Z,7.69
2023-03-05T15:40:59.330Z,7.70
2023-03-05T15:41:57.557Z,7.45
2023-03-05T15:42:57.573Z,8.12
2023-03-05T15:43:57.700Z,8.14
2023-03-05T15:44:57.687Z,8.34
2023-03-05T15:45:57.784Z,8.02
2023-03-05T15:46:57.761Z,7.15
2023-03-05T15:47:57.810Z,7.39
2023-03-05T15:48:57.810Z,7.17
2023-03-05T15:49:57.837Z,7.72
2023-03-05T15:50:57.902Z,7.21
2023-03-05T15:51:57.925Z,7.19
2023-03-05T15:52:58.079Z,6.87
2023-03-05T15:53:57.984Z,6.79
2023-03-05T15:54:58.052Z,6.85
2023-03-05T15:55:58.044Z,6.74
2023-03-05T15:56:58.138Z,7.82
2023-03-05T15:57:58.158Z,6.21
2023-03-05T15:58:58.226Z,7.16
2023-03-05T15:59:58.285Z,8.14
2023-03-05T16:00:58.253Z,7.11
2023-03-05T16:01:58.338Z,7.98
2023-03-05T16:02:58.523Z,7.55
2023-03-05T16:03:58.356Z,7.07
2023-03-05T16:04:58.415Z,7.10
2023-03-05T16:05:58.455Z,6.89
2023-03-05T16:06:58.469Z,7.60
2023-03-05T16:07:58.521Z,7.41
2023-03-05T16:08:58.578Z,7.23
2023-03-05T16:09:58.608Z,7.72
2023-03-05T16:10:58.639Z,7.52
2023-03-05T16:11:58.698Z,7.42
2023-03-05T16:12:58.751Z,7.09
2023-03-05T16:13:58.750Z,6.75
2023-03-05T19:04:07.890Z,7.57
2023-03-05T19:05:07.949Z,6.98
2023-03-05T19:06:08.037Z,7.63
2023-03-05T21:20:17.934Z,12.11
2023-03-05T21:21:18.022Z,11.15
2023-03-05T21:22:18.110Z,10.15
2023-03-05T21:23:18.220Z,10.57
2023-03-05T21:24:18.298Z,10.66
2023-03-05T21:25:18.380Z,11.07
2023-03-05T21:26:18.550Z,11.13
2023-03-05T21:27:18.573Z,10.34
2023-03-05T21:28:18.697Z,9.90
2023-03-05T21:29:18.756Z,10.27
2023-03-05T21:30:18.885Z,10.61
2023-03-05T21:31:18.947Z,11.60
2023-03-05T21:32:19.078Z,11.08
2023-03-05T21:33:19.078Z,10.38
2023-03-05T21:36:19.350Z,11.10
2023-03-05T21:37:19.439Z,11.58
2023-03-05T21:38:19.507Z,10.00
2023-03-05T21:39:19.602Z,9.51
2023-03-05T21:40:19.673Z,10.23
2023-03-05T21:41:19.749Z,9.76
2023-03-05T21:42:19.834Z,9.95
2023-03-05T23:29:27.942Z,10.32
2023-03-05T23:30:27.983Z,10.29
2023-03-05T23:31:28.092Z,10.90
2023-03-05T23:32:28.235Z,11.27
2023-03-05T23:33:28.246Z,11.43
2023-03-05T23:34:28.369Z,9.90
2023-03-05T23:35:28.447Z,10.00
2023-03-05T23:36:28.484Z,10.32
2023-03-05T23:37:28.509Z,10.07
2023-03-05T23:38:28.611Z,10.87
2023-03-05T23:39:28.640Z,10.54
2023-03-05T23:40:28.723Z,10.80
2023-03-05T23:41:28.768Z,10.94
2023-03-05T23:42:28.893Z,11.08
2023-03-05T23:43:28.968Z,10.14
2023-03-05T23:44:29.060Z,9.92
2023-03-05T23:45:29.089Z,9.97
2023-03-05T23:46:29.185Z,11.02
2023-03-05T23:47:29.258Z,10.15
2023-03-05T23:48:29.341Z,10.57
2023-03-05T23:49:29.492Z,10.44
2023-03-05T23:50:29.464Z,10.39
2023-03-05T23:51:29.565Z,10.45
2023-03-05T23:52:29.621Z,9.85
2023-03-05T23:53:29.737Z,11.69
2023-03-05T23:54:29.840Z,10.34
2023-03-05T23:55:29.884Z,10.59
2023-03-05T23:56:29.949Z,10.35
2023-03-05T23:57:30.057Z,10.46
2023-03-05T23:58:30.192Z,10.20
2023-03-05T23:59:30.255Z,11.82
